Time;durP1;ratioP1;P1;durP2;ratioP2;P2;SDS_P1;SDS_P2;PMS_P1;PMS_P2;Temp;Humidity;BMP_temperature;BMP_pressure;BME280_temperature;BME280_humidity;BME280_pressure;Samples;Min_cycle;Max_cycle;Signal;HPM_P1;HPM_P2
2022/08/13 00:00:13;;;;;;;1.20;1.08;;;26.00;54.60;;;;;;5061318;28;20029;-23
2022/08/13 00:02:42;;;;;;;1.00;1.00;;;26.00;54.60;;;;;;5066215;28;20077;-22
2022/08/13 00:05:09;;;;;;;1.13;1.08;;;25.90;53.80;;;;;;5063749;28;20091;-22
2022/08/13 00:07:35;;;;;;;1.30;1.20;;;26.00;54.10;;;;;;5059363;28;20032;-24
2022/08/13 00:10:01;;;;;;;0.90;0.90;;;25.90;54.00;;;;;;5062414;28;20518;-24
2022/08/13 00:15:29;;;;;;;1.13;0.90;;;25.90;54.40;;;;;;5064834;28;20082;-25
2022/08/13 00:17:59;;;;;;;1.85;1.00;;;25.90;53.70;;;;;;5066703;28;20032;-25
2022/08/13 00:20:28;;;;;;;1.10;1.10;;;25.90;53.90;;;;;;5064804;28;20017;-28
2022/08/13 00:22:55;;;;;;;0.93;0.93;;;25.80;53.80;;;;;;5065940;28;20525;-24
2022/08/13 00:25:20;;;;;;;1.35;1.20;;;25.90;54.60;;;;;;5066926;28;20028;-23
2022/08/13 00:27:56;;;;;;;1.00;1.00;;;25.80;54.30;;;;;;5064014;28;20028;-42
2022/08/13 00:30:28;;;;;;;1.00;1.00;;;25.80;53.80;;;;;;5063558;28;20252;-42
2022/08/13 00:32:54;;;;;;;1.33;1.23;;;25.80;54.30;;;;;;5063410;28;20020;-42
2022/08/13 00:35:19;;;;;;;0.90;0.90;;;25.80;53.40;;;;;;5064660;28;20028;-42
2022/08/13 00:37:46;;;;;;;1.42;1.33;;;25.80;53.60;;;;;;5064736;28;20391;-43
2022/08/13 00:40:13;;;;;;;1.05;1.05;;;25.80;53.90;;;;;;5061238;28;20036;-42
2022/08/13 00:42:39;;;;;;;0.93;0.93;;;25.80;54.00;;;;;;5059054;28;20024;-43
2022/08/13 00:45:06;;;;;;;1.20;1.10;;;25.80;54.00;;;;;;5066843;28;20016;-42
2022/08/13 00:50:15;;;;;;;1.20;1.20;;;25.70;54.50;;;;;;5061495;28;20047;-42
2022/08/13 00:52:41;;;;;;;1.17;1.17;;;25.70;53.70;;;;;;5065328;28;20016;-42
2022/08/13 00:55:09;;;;;;;1.25;1.17;;;25.80;53.90;;;;;;5060019;28;20471;-43
2022/08/13 00:57:36;;;;;;;2.17;1.27;;;25.80;53.70;;;;;;5064392;28;20059;-42
2022/08/13 01:00:12;;;;;;;1.27;1.27;;;25.80;53.90;;;;;;5065184;28;20031;-42
2022/08/13 01:02:39;;;;;;;1.20;1.20;;;25.80;53.70;;;;;;5062859;28;20032;-43
2022/08/13 01:05:05;;;;;;;1.52;1.38;;;25.70;53.70;;;;;;5063481;28;20032;-42
2022/08/13 01:07:31;;;;;;;1.40;1.30;;;25.70;53.60;;;;;;5066260;28;20032;-42
2022/08/13 01:09:56;;;;;;;1.55;1.20;;;25.80;53.70;;;;;;5046670;28;20025;-43
2022/08/13 01:12:23;;;;;;;1.10;1.10;;;25.70;53.60;;;;;;5031858;28;20021;-42
2022/08/13 01:14:49;;;;;;;1.20;1.20;;;25.70;54.10;;;;;;5047450;28;20103;-42
2022/08/13 01:17:15;;;;;;;2.15;1.10;;;25.70;54.50;;;;;;5047395;28;20214;-42
2022/08/13 01:19:42;;;;;;;3.13;1.20;;;25.70;54.80;;;;;;5047732;28;20545;-45
2022/08/13 01:22:07;;;;;;;1.08;0.90;;;25.70;54.30;;;;;;5048273;28;20024;-42
2022/08/13 01:24:33;;;;;;;1.00;1.00;;;25.60;54.00;;;;;;5049178;28;20032;-43
2022/08/13 01:26:58;;;;;;;1.38;1.30;;;25.70;54.90;;;;;;5070983;28;20135;-42
2022/08/13 01:29:25;;;;;;;1.67;1.15;;;25.70;54.70;;;;;;5068902;28;20494;-42
2022/08/13 01:31:51;;;;;;;1.60;1.25;;;25.60;54.10;;;;;;5067695;28;20032;-42
2022/08/13 01:34:17;;;;;;;1.45;1.25;;;25.60;54.20;;;;;;5051212;28;20036;-42
2022/08/13 01:36:43;;;;;;;1.10;1.10;;;25.60;53.90;;;;;;5064378;28;20017;-42
2022/08/13 01:39:10;;;;;;;1.30;1.25;;;25.60;53.90;;;;;;5068433;28;20044;-43
2022/08/13 01:41:36;;;;;;;2.03;1.38;;;25.60;54.00;;;;;;5069148;28;20554;-42
2022/08/13 01:44:05;;;;;;;1.20;1.20;;;25.60;53.50;;;;;;5069526;28;20107;-42
2022/08/13 01:50:28;;;;;;;1.10;1.10;;;25.60;54.20;;;;;;5068715;28;20059;-43
2022/08/13 01:52:02;;;;;;;;;;;25.60;54.00;;;;;;5068481;28;20074;-43
2022/08/13 01:54:28;;;;;;;1.10;1.10;;;25.60;54.20;;;;;;5063775;28;19916;-43
2022/08/13 01:56:55;;;;;;;1.35;1.25;;;25.50;54.30;;;;;;5034484;28;20024;-42
2022/08/13 01:59:21;;;;;;;1.30;1.30;;;25.50;54.00;;;;;;5030742;28;20037;-42
2022/08/13 02:01:46;;;;;;;1.20;1.20;;;25.60;54.40;;;;;;5067453;28;20082;-42
2022/08/13 02:04:13;;;;;;;1.38;1.38;;;25.60;54.20;;;;;;5067198;28;20036;-42
2022/08/13 02:06:40;;;;;;;2.22;1.40;;;25.60;54.40;;;;;;5069796;28;20052;-42
2022/08/13 02:09:06;;;;;;;1.58;1.48;;;25.60;54.00;;;;;;5068148;28;20032;-43
2022/08/13 02:11:34;;;;;;;1.40;1.30;;;25.50;54.40;;;;;;5068228;28;20028;-42
2022/08/13 02:14:02;;;;;;;1.38;1.27;;;25.50;54.50;;;;;;5067344;28;20074;-43
2022/08/13 02:16:30;;;;;;;1.10;1.10;;;25.50;53.80;;;;;;5068836;28;20028;-42
2022/08/13 02:18:55;;;;;;;2.53;1.10;;;25.50;54.50;;;;;;5068018;28;20399;-42
2022/08/13 02:21:22;;;;;;;1.30;1.30;;;25.50;54.20;;;;;;5066419;28;20024;-43
2022/08/13 02:23:56;;;;;;;1.02;1.02;;;25.40;54.70;;;;;;5068183;28;20028;-42
2022/08/13 02:26:23;;;;;;;1.13;1.13;;;25.50;54.60;;;;;;5067994;28;20035;-43
2022/08/13 02:28:50;;;;;;;1.42;1.10;;;25.40;54.40;;;;;;5066858;28;20028;-42
2022/08/13 02:31:16;;;;;;;1.40;1.30;;;25.40;54.60;;;;;;5064016;28;20032;-43
2022/08/13 02:33:42;;;;;;;1.52;1.42;;;25.40;54.40;;;;;;5066558;28;20665;-42
2022/08/13 02:36:10;;;;;;;1.58;1.40;;;25.50;54.30;;;;;;5068458;28;20052;-43
2022/08/13 02:38:36;;;;;;;1.42;1.42;;;25.50;54.50;;;;;;5051145;28;20103;-43
2022/08/13 02:43:47;;;;;;;1.58;1.55;;;25.50;54.80;;;;;;5068815;28;20529;-42
2022/08/13 02:46:14;;;;;;;1.50;1.40;;;25.50;54.20;;;;;;5065895;28;20023;-42
2022/08/13 02:48:40;;;;;;;1.77;1.67;;;25.50;55.50;;;;;;5052177;28;20019;-43
2022/08/13 02:51:05;;;;;;;1.58;1.50;;;25.40;54.40;;;;;;5061469;28;20020;-43
2022/08/13 02:53:31;;;;;;;2.00;1.83;;;25.50;54.60;;;;;;5067615;28;20020;-42
2022/08/13 02:55:57;;;;;;;1.38;1.35;;;25.40;54.80;;;;;;5047981;28;20029;-43
2022/08/13 02:58:22;;;;;;;2.08;1.25;;;25.40;54.40;;;;;;5067342;28;20031;-43
2022/08/13 03:00:51;;;;;;;1.65;1.55;;;25.50;55.10;;;;;;5064450;28;20021;-42
2022/08/13 03:03:17;;;;;;;1.90;1.80;;;25.50;56.80;;;;;;5034687;28;20013;-42
2022/08/13 03:05:43;;;;;;;1.83;1.73;;;25.30;53.60;;;;;;5066002;28;20021;-42
2022/08/13 03:08:09;;;;;;;2.15;2.00;;;25.10;51.90;;;;;;5065612;28;20036;-42
2022/08/13 03:10:35;;;;;;;2.00;1.90;;;24.90;51.50;;;;;;5067696;28;20032;-42
2022/08/13 03:13:07;;;;;;;2.30;2.03;;;24.90;51.20;;;;;;5065897;28;20146;-42
2022/08/13 03:15:33;;;;;;;2.35;1.83;;;24.80;51.30;;;;;;5027533;28;20024;-42
2022/08/13 03:17:59;;;;;;;2.40;1.88;;;24.60;51.10;;;;;;5047891;28;20097;-42
2022/08/13 03:20:25;;;;;;;2.10;2.00;;;24.50;51.50;;;;;;5065284;28;20052;-42
2022/08/13 03:22:53;;;;;;;2.08;1.98;;;24.40;51.60;;;;;;5065262;28;20028;-42
2022/08/13 03:25:22;;;;;;;2.80;2.00;;;24.40;51.60;;;;;;5063394;28;20028;-42
2022/08/13 03:27:48;;;;;;;4.93;3.60;;;24.30;51.70;;;;;;5065281;28;20126;-42
2022/08/13 03:30:15;;;;;;;3.10;2.80;;;24.30;51.80;;;;;;5064212;28;20499;-42
2022/08/13 03:32:45;;;;;;;2.30;2.10;;;24.20;52.00;;;;;;5066335;28;20048;-43
2022/08/13 03:35:11;;;;;;;1.90;1.80;;;24.20;52.10;;;;;;5066839;28;20370;-42
2022/08/13 03:37:38;;;;;;;2.03;1.92;;;24.20;51.90;;;;;;5067176;28;20115;-42
2022/08/13 03:40:04;;;;;;;2.03;1.90;;;24.00;52.10;;;;;;5062751;28;20028;-43
2022/08/13 03:42:30;;;;;;;2.30;2.10;;;24.00;52.40;;;;;;5063585;28;20036;-42
2022/08/13 03:44:56;;;;;;;2.88;2.15;;;23.90;52.30;;;;;;5066106;28;20047;-42
2022/08/13 03:47:22;;;;;;;2.38;2.22;;;23.90;52.50;;;;;;5061550;28;20026;-42
2022/08/13 03:49:48;;;;;;;1.70;1.60;;;23.80;52.70;;;;;;5065275;28;20016;-42
2022/08/13 03:52:13;;;;;;;2.40;2.20;;;23.60;52.90;;;;;;5064098;28;20167;-42
2022/08/13 03:54:40;;;;;;;1.90;1.80;;;23.60;53.40;;;;;;5063476;28;20067;-42
2022/08/13 03:57:06;;;;;;;1.65;1.55;;;23.60;53.50;;;;;;5061409;28;20660;-42
2022/08/13 03:59:32;;;;;;;2.95;2.17;;;23.60;53.80;;;;;;5060942;28;20163;-41
2022/08/13 04:02:01;;;;;;;2.22;2.03;;;23.60;53.80;;;;;;5061891;28;20024;-42
2022/08/13 04:04:27;;;;;;;2.10;2.00;;;23.50;54.10;;;;;;5059571;28;20024;-43
2022/08/13 04:06:52;;;;;;;2.10;1.90;;;23.40;54.10;;;;;;5059070;28;20032;-42
2022/08/13 04:09:18;;;;;;;2.08;1.98;;;23.40;53.90;;;;;;5059275;28;20036;-42
2022/08/13 04:11:46;;;;;;;4.25;1.90;;;23.40;54.00;;;;;;5059459;28;20449;-42
2022/08/13 04:14:12;;;;;;;2.30;2.20;;;23.30;54.10;;;;;;5060325;28;20082;-42
2022/08/13 04:16:39;;;;;;;1.80;1.70;;;23.30;54.00;;;;;;5063161;28;20028;-42
2022/08/13 04:19:05;;;;;;;3.70;1.92;;;23.30;53.80;;;;;;5063794;28;20028;-42
2022/08/13 04:21:31;;;;;;;3.13;1.98;;;23.30;53.70;;;;;;5061488;28;20020;-42
2022/08/13 04:23:57;;;;;;;2.65;2.00;;;23.20;54.00;;;;;;5059771;28;20028;-42
2022/08/13 04:26:24;;;;;;;2.53;1.88;;;23.10;54.20;;;;;;5061802;28;20123;-42
2022/08/13 04:28:50;;;;;;;1.83;1.73;;;23.10;54.30;;;;;;5062724;28;20041;-42
2022/08/13 04:31:16;;;;;;;2.38;1.77;;;23.00;54.40;;;;;;5062835;28;20434;-42
2022/08/13 04:33:42;;;;;;;2.03;1.92;;;23.00;54.70;;;;;;5062139;28;20038;-42
2022/08/13 04:36:08;;;;;;;2.50;2.30;;;23.00;54.50;;;;;;5060167;28;20009;-42
2022/08/13 04:38:34;;;;;;;1.92;1.83;;;23.00;54.50;;;;;;5061281;28;20518;-42
2022/08/13 04:41:01;;;;;;;2.65;2.08;;;22.90;54.70;;;;;;5060294;28;20032;-44
2022/08/13 04:43:27;;;;;;;1.92;1.83;;;22.90;54.80;;;;;;5061239;28;20025;-43
2022/08/13 04:45:52;;;;;;;2.25;1.95;;;22.80;54.80;;;;;;5065975;28;20039;-43
2022/08/13 04:48:18;;;;;;;3.33;1.80;;;22.90;54.80;;;;;;5064033;28;20107;-43
2022/08/13 04:50:45;;;;;;;1.90;1.80;;;22.90;55.00;;;;;;5062461;28;20515;-42
2022/08/13 04:53:25;;;;;;;2.05;1.92;;;22.80;55.10;;;;;;5066096;28;20024;-42
2022/08/13 04:55:51;;;;;;;2.30;2.10;;;22.70;55.30;;;;;;5064027;28;20415;-42
2022/08/13 04:58:16;;;;;;;2.10;2.00;;;22.70;55.20;;;;;;5066327;28;20494;-43
2022/08/13 05:00:44;;;;;;;3.05;1.90;;;22.70;55.40;;;;;;5070016;28;20023;-42
2022/08/13 05:03:16;;;;;;;2.00;1.90;;;22.70;55.20;;;;;;5068938;28;20479;-43
2022/08/13 05:05:43;;;;;;;2.70;1.88;;;22.60;55.40;;;;;;5069284;28;20021;-43
2022/08/13 05:08:09;;;;;;;2.67;2.08;;;22.50;55.50;;;;;;5069543;28;20036;-43
2022/08/13 05:10:38;;;;;;;1.92;1.83;;;22.50;55.60;;;;;;5070712;28;20403;-43
2022/08/13 05:13:04;;;;;;;1.67;1.58;;;22.50;55.60;;;;;;5066739;28;20028;-44
2022/08/13 05:15:30;;;;;;;2.10;1.98;;;22.60;55.50;;;;;;5068645;28;20017;-42
2022/08/13 05:17:56;;;;;;;2.10;1.92;;;22.50;55.70;;;;;;5066004;28;20032;-45
2022/08/13 05:20:22;;;;;;;1.80;1.70;;;22.50;55.60;;;;;;5069465;28;20525;-42
2022/08/13 05:22:48;;;;;;;2.15;2.00;;;22.40;55.70;;;;;;5066016;28;20020;-42
2022/08/13 05:25:14;;;;;;;2.08;1.95;;;22.40;55.80;;;;;;5067501;28;20081;-42
2022/08/13 05:27:41;;;;;;;1.88;1.77;;;22.30;55.50;;;;;;5068478;28;20081;-42
2022/08/13 05:30:07;;;;;;;1.90;1.80;;;22.30;55.70;;;;;;5063953;28;20483;-42
2022/08/13 05:32:38;;;;;;;1.83;1.77;;;22.30;55.70;;;;;;5067808;28;20619;-42
2022/08/13 05:35:05;;;;;;;2.30;2.10;;;22.40;55.60;;;;;;5069716;28;20043;-42
2022/08/13 05:37:31;;;;;;;1.90;1.80;;;22.30;56.00;;;;;;5069159;28;20024;-43
2022/08/13 05:39:57;;;;;;;2.33;2.13;;;22.30;56.30;;;;;;5068339;28;20033;-42
2022/08/13 05:42:22;;;;;;;2.05;1.65;;;22.20;56.60;;;;;;5067127;28;20037;-42
2022/08/13 05:44:48;;;;;;;2.08;1.92;;;22.30;56.80;;;;;;5068972;28;20487;-42
2022/08/13 05:47:14;;;;;;;2.53;2.35;;;22.30;57.00;;;;;;5069124;28;20098;-42
2022/08/13 05:49:39;;;;;;;2.22;2.13;;;22.30;57.00;;;;;;5069568;28;20012;-42
2022/08/13 05:52:05;;;;;;;3.28;2.28;;;22.30;57.10;;;;;;5067870;28;20895;-43
2022/08/13 05:54:31;;;;;;;2.17;2.08;;;22.20;57.20;;;;;;5065287;28;20063;-42
2022/08/13 05:56:57;;;;;;;1.98;1.88;;;22.10;57.40;;;;;;5069216;28;20020;-47
2022/08/13 06:04:52;;;;;;;2.50;2.22;;;22.20;57.60;;;;;;5038192;28;20046;-42
2022/08/13 06:07:19;;;;;;;7.55;2.00;;;22.10;57.90;;;;;;4710827;28;10000150;-42
2022/08/13 06:09:45;;;;;;;1.95;1.85;;;22.10;58.00;;;;;;5062151;28;20024;-42
2022/08/13 06:12:11;;;;;;;2.00;1.90;;;22.20;57.90;;;;;;5064957;28;20823;-42
2022/08/13 06:14:38;;;;;;;1.83;1.70;;;22.30;57.70;;;;;;5049800;28;20085;-43
2022/08/13 06:17:03;;;;;;;2.35;1.63;;;22.40;57.50;;;;;;5022757;28;20062;-43
2022/08/13 06:19:32;;;;;;;1.65;1.63;;;22.50;57.40;;;;;;5056014;28;20443;-46
2022/08/13 06:22:02;;;;;;;1.73;1.63;;;22.50;57.20;;;;;;5062803;28;20078;-42
2022/08/13 06:24:29;;;;;;;1.80;1.70;;;22.60;57.10;;;;;;4707853;28;10000269;-42
2022/08/13 06:26:59;;;;;;;2.38;2.20;;;22.60;57.10;;;;;;5056820;28;20029;-22
2022/08/13 06:29:24;;;;;;;1.90;1.80;;;22.60;57.00;;;;;;5060248;28;20338;-21
2022/08/13 06:31:50;;;;;;;2.00;1.83;;;22.70;56.90;;;;;;5042921;28;20685;-24
2022/08/13 06:34:16;;;;;;;1.90;1.80;;;22.70;56.90;;;;;;5058473;28;20021;-21
2022/08/13 06:36:41;;;;;;;2.25;2.15;;;22.80;57.00;;;;;;5057069;28;20422;-21
2022/08/13 06:39:07;;;;;;;1.83;1.73;;;22.70;57.20;;;;;;5061117;28;20135;-21
2022/08/13 06:41:34;;;;;;;1.83;1.70;;;22.60;57.60;;;;;;5025499;28;20025;-24
2022/08/13 06:43:59;;;;;;;1.98;1.88;;;22.60;57.70;;;;;;5062314;28;20024;-22
2022/08/13 06:46:28;;;;;;;2.33;1.80;;;22.60;57.90;;;;;;5060713;28;20028;-23
2022/08/13 06:48:58;;;;;;;1.90;1.80;;;22.60;57.90;;;;;;5061484;28;20027;-23
2022/08/13 06:51:23;;;;;;;2.28;2.17;;;22.70;58.10;;;;;;5063196;28;20406;-22
2022/08/13 06:53:49;;;;;;;1.52;1.52;;;22.70;58.20;;;;;;5062712;28;20259;-22
2022/08/13 06:56:19;;;;;;;1.80;1.70;;;22.70;58.20;;;;;;5058814;28;20033;-22
2022/08/13 06:58:46;;;;;;;1.90;1.80;;;22.80;58.10;;;;;;5044231;28;20029;-22
2022/08/13 07:01:18;;;;;;;1.80;1.70;;;22.80;58.00;;;;;;5061446;28;20043;-22
2022/08/13 07:03:44;;;;;;;1.60;1.50;;;23.00;58.00;;;;;;5048361;28;20020;-21
2022/08/13 07:06:14;;;;;;;2.15;1.50;;;23.00;57.80;;;;;;5064435;28;20048;-23
2022/08/13 07:08:40;;;;;;;2.47;1.63;;;23.10;58.00;;;;;;5050313;28;20020;-21
2022/08/13 07:11:24;;;;;;;1.70;1.60;;;23.20;58.90;;;;;;5028503;28;20082;-21
2022/08/13 07:13:51;;;;;;;1.58;1.58;;;23.20;58.40;;;;;;5039371;28;20064;-24
2022/08/13 07:16:18;;;;;;;1.55;1.45;;;23.20;58.40;;;;;;5063980;28;20454;-21
2022/08/13 07:18:43;;;;;;;1.70;1.65;;;23.20;58.30;;;;;;5064689;28;20517;-21
2022/08/13 07:21:10;;;;;;;1.38;1.27;;;23.30;58.40;;;;;;5066960;28;20048;-22
2022/08/13 07:23:40;;;;;;;1.30;1.30;;;23.30;58.40;;;;;;5063060;28;20033;-21
2022/08/13 07:26:05;;;;;;;1.40;1.30;;;23.30;58.20;;;;;;5063067;28;20033;-22
2022/08/13 07:28:32;;;;;;;1.80;1.70;;;23.40;58.20;;;;;;5060838;28;21759;-22
2022/08/13 07:30:58;;;;;;;1.80;1.70;;;23.40;58.00;;;;;;5065514;28;20025;-21
2022/08/13 07:33:24;;;;;;;1.48;1.48;;;23.50;57.70;;;;;;5063975;28;20395;-21
2022/08/13 07:35:49;;;;;;;2.88;1.33;;;23.50;57.30;;;;;;5066361;28;20029;-21
2022/08/13 07:38:15;;;;;;;1.35;1.35;;;23.50;56.80;;;;;;5067296;28;20102;-21
2022/08/13 07:40:42;;;;;;;1.70;1.60;;;23.60;56.90;;;;;;5062277;28;20394;-21
2022/08/13 07:43:07;;;;;;;1.88;1.75;;;23.60;56.50;;;;;;4690016;28;10000403;-22
2022/08/13 07:45:33;;;;;;;1.58;1.48;;;23.60;57.40;;;;;;5043645;28;20041;-21
2022/08/13 07:47:58;;;;;;;3.33;1.48;;;23.70;56.60;;;;;;5060753;28;20086;-21
2022/08/13 07:50:24;;;;;;;2.65;1.35;;;23.60;56.60;;;;;;5042114;28;20032;-21
2022/08/13 07:52:55;;;;;;;2.13;1.50;;;23.70;56.40;;;;;;5043419;28;20016;-21
2022/08/13 07:55:25;;;;;;;1.25;1.25;;;23.70;56.60;;;;;;5057464;28;20028;-22
2022/08/13 07:57:51;;;;;;;1.60;1.50;;;23.70;56.40;;;;;;5056837;28;20108;-27
2022/08/13 08:00:25;;;;;;;1.15;1.10;;;23.70;56.70;;;;;;5061455;28;21870;-22
2022/08/13 08:03:01;;;;;;;1.40;1.30;;;23.80;56.60;;;;;;5063569;28;20590;-23
2022/08/13 08:05:30;;;;;;;1.50;1.40;;;23.80;56.70;;;;;;5060150;28;20020;-22
2022/08/13 08:07:56;;;;;;;1.20;1.20;;;23.80;56.80;;;;;;5059300;28;20067;-22
2022/08/13 08:10:21;;;;;;;1.42;1.40;;;23.80;56.70;;;;;;5040556;28;20399;-21
2022/08/13 08:12:47;;;;;;;3.08;1.42;;;23.80;56.60;;;;;;5045036;28;20447;-21
2022/08/13 08:15:13;;;;;;;1.50;1.40;;;23.80;56.50;;;;;;5062133;28;20049;-21
2022/08/13 08:17:40;;;;;;;1.85;1.58;;;23.90;56.60;;;;;;5061602;28;20036;-21
2022/08/13 08:20:06;;;;;;;1.38;1.38;;;23.90;56.70;;;;;;5059038;28;20055;-20
2022/08/13 08:22:33;;;;;;;1.20;1.20;;;23.90;56.90;;;;;;5061852;28;20047;-21
2022/08/13 08:24:59;;;;;;;5.60;1.40;;;24.00;56.50;;;;;;5046349;28;20016;-21
2022/08/13 08:27:25;;;;;;;1.50;1.40;;;24.00;57.00;;;;;;5063282;28;20137;-21
2022/08/13 08:29:51;;;;;;;1.50;1.50;;;24.00;56.40;;;;;;5068182;28;20187;-21
2022/08/13 08:32:18;;;;;;;1.65;1.60;;;24.00;56.50;;;;;;5064842;28;20578;-20
2022/08/13 08:34:45;;;;;;;2.13;1.50;;;24.00;56.30;;;;;;5061054;28;20024;-22
2022/08/13 08:42:35;;;;;;;1.33;1.20;;;24.10;56.90;;;;;;5061296;28;20023;-20
2022/08/13 08:42:48;;;;;;;1.30;1.30;;;24.10;56.50;;;;;;5066160;28;20029;-21
2022/08/13 08:45:14;;;;;;;2.58;1.45;;;24.10;56.30;;;;;;5043964;28;20021;-21
2022/08/13 08:47:40;;;;;;;1.33;1.33;;;24.20;56.50;;;;;;4692967;28;9999971;-21
2022/08/13 08:50:09;;;;;;;1.40;1.30;;;24.20;56.40;;;;;;5055875;28;20044;-22
2022/08/13 08:55:19;;;;;;;1.35;1.25;;;24.20;56.60;;;;;;5039872;28;20044;-32
2022/08/13 08:57:44;;;;;;;1.25;1.15;;;24.30;56.90;;;;;;5054313;28;20056;-24
2022/08/13 09:00:14;;;;;;;1.52;1.50;;;24.30;56.90;;;;;;5058179;28;20060;-25
2022/08/13 09:02:40;;;;;;;1.75;1.65;;;24.30;57.00;;;;;;5053384;28;20059;-24
2022/08/13 09:05:07;;;;;;;4.20;1.50;;;24.30;57.00;;;;;;5054591;28;20080;-24
2022/08/13 09:07:36;;;;;;;3.05;1.40;;;24.30;56.90;;;;;;5024646;28;20055;-23
2022/08/13 09:10:04;;;;;;;2.58;1.52;;;24.40;56.70;;;;;;5055813;28;20040;-22
2022/08/13 09:12:29;;;;;;;1.65;1.55;;;24.40;56.90;;;;;;5037745;28;20040;-23
2022/08/13 09:14:59;;;;;;;1.23;1.23;;;24.40;56.80;;;;;;5053130;28;20044;-23
2022/08/13 09:17:27;;;;;;;1.42;1.33;;;24.40;57.50;;;;;;5036263;28;20064;-24
2022/08/13 09:19:53;;;;;;;1.30;1.25;;;24.50;56.90;;;;;;5055341;28;20510;-23
2022/08/13 09:22:20;;;;;;;1.95;1.33;;;24.50;56.90;;;;;;5058655;28;20090;-24
2022/08/13 09:24:46;;;;;;;1.48;1.38;;;24.50;56.90;;;;;;5055957;28;20045;-23
2022/08/13 09:27:15;;;;;;;1.13;1.13;;;24.60;56.80;;;;;;5055995;28;20656;-23
2022/08/13 09:29:42;;;;;;;1.95;1.17;;;24.60;56.80;;;;;;5059135;28;20171;-31
2022/08/13 09:32:08;;;;;;;1.20;1.20;;;24.60;56.70;;;;;;5053631;28;20110;-23
2022/08/13 09:34:34;;;;;;;2.25;1.23;;;24.70;56.80;;;;;;5058771;28;20029;-22
2022/08/13 09:37:01;;;;;;;1.40;1.30;;;24.70;56.70;;;;;;5041151;28;20394;-21
2022/08/13 09:39:32;;;;;;;1.23;1.23;;;24.70;56.70;;;;;;5042263;28;20136;-21
2022/08/13 09:42:00;;;;;;;1.25;1.25;;;24.70;57.30;;;;;;5044390;28;20022;-20
2022/08/13 09:44:26;;;;;;;1.23;1.20;;;24.70;56.60;;;;;;5039161;28;20241;-21
2022/08/13 09:46:52;;;;;;;1.00;0.90;;;24.80;56.60;;;;;;5063514;28;20053;-20
2022/08/13 09:49:20;;;;;;;0.85;0.77;;;24.80;56.60;;;;;;5062927;28;20461;-23
2022/08/13 09:51:45;;;;;;;1.60;1.08;;;24.80;56.50;;;;;;5059462;28;20021;-22
2022/08/13 09:54:11;;;;;;;1.10;1.08;;;24.80;56.50;;;;;;5061196;28;20760;-23
2022/08/13 09:56:37;;;;;;;1.10;1.00;;;24.80;56.50;;;;;;5063370;28;20773;-23
2022/08/13 09:59:10;;;;;;;2.35;1.10;;;24.90;56.50;;;;;;5061770;28;20024;-22
2022/08/13 10:01:36;;;;;;;0.98;0.90;;;24.90;56.50;;;;;;5061974;28;20070;-23
2022/08/13 10:04:02;;;;;;;0.95;0.95;;;24.90;57.10;;;;;;5059868;28;20473;-23
2022/08/13 10:06:32;;;;;;;1.08;1.08;;;24.90;56.50;;;;;;5068083;28;20513;-22
2022/08/13 10:09:00;;;;;;;1.00;1.00;;;24.90;56.50;;;;;;5063503;28;20016;-24
2022/08/13 10:11:28;;;;;;;1.02;1.02;;;24.90;56.60;;;;;;5061065;28;20035;-22
2022/08/13 10:13:54;;;;;;;1.30;1.20;;;25.00;56.40;;;;;;5065442;28;20020;-21
2022/08/13 10:16:20;;;;;;;1.85;1.20;;;25.00;56.30;;;;;;5061276;28;20035;-21
2022/08/13 10:18:46;;;;;;;0.70;0.70;;;25.00;56.50;;;;;;5064935;28;20031;-21
2022/08/13 10:21:12;;;;;;;1.75;0.80;;;25.00;56.50;;;;;;5066719;28;20029;-22
2022/08/13 10:23:38;;;;;;;1.02;1.00;;;25.00;56.50;;;;;;5063014;28;20033;-29
2022/08/13 10:26:04;;;;;;;1.20;0.88;;;25.10;56.60;;;;;;5057702;28;20449;-22
2022/08/13 10:28:33;;;;;;;0.80;0.80;;;25.10;56.60;;;;;;5065671;28;20489;-22
2022/08/13 10:31:00;;;;;;;1.35;1.00;;;25.10;56.60;;;;;;5063401;28;20090;-22
2022/08/13 10:33:27;;;;;;;1.10;1.00;;;25.20;57.10;;;;;;5066216;28;20031;-21
2022/08/13 10:35:52;;;;;;;1.45;1.30;;;25.20;57.10;;;;;;5067328;28;20028;-21
2022/08/13 10:38:20;;;;;;;1.65;1.20;;;25.20;57.10;;;;;;5064376;28;20604;-22
2022/08/13 10:40:46;;;;;;;1.25;1.25;;;25.20;57.30;;;;;;5066344;28;20036;-22
2022/08/13 10:43:11;;;;;;;1.17;1.15;;;25.20;57.40;;;;;;5066481;28;20419;-22
2022/08/13 10:45:37;;;;;;;2.08;1.00;;;25.20;57.50;;;;;;5066378;28;20415;-22
2022/08/13 10:48:07;;;;;;;1.83;1.17;;;25.20;57.70;;;;;;5067506;28;20065;-21
2022/08/13 10:50:33;;;;;;;0.93;0.90;;;25.20;57.50;;;;;;5047986;28;20032;-21
2022/08/13 10:52:59;;;;;;;0.80;0.80;;;25.30;57.20;;;;;;5064137;28;20033;-21
2022/08/13 10:55:25;;;;;;;0.90;0.90;;;25.20;57.50;;;;;;5064524;28;20121;-21
2022/08/13 10:57:50;;;;;;;0.98;0.90;;;25.20;57.30;;;;;;5066299;28;20131;-22
2022/08/13 11:00:16;;;;;;;0.90;0.90;;;25.30;57.60;;;;;;5066826;28;20048;-21
2022/08/13 11:02:42;;;;;;;1.63;0.90;;;25.30;57.40;;;;;;5042282;28;20777;-21
2022/08/13 11:05:09;;;;;;;1.05;0.93;;;25.30;57.20;;;;;;5061233;28;21008;-22
2022/08/13 11:07:36;;;;;;;1.98;1.27;;;25.30;57.40;;;;;;5064208;28;20063;-22
2022/08/13 11:10:03;;;;;;;2.38;1.30;;;25.30;57.30;;;;;;5058299;28;20120;-21
2022/08/13 11:12:29;;;;;;;1.45;1.25;;;25.40;57.50;;;;;;5059880;28;20126;-23
2022/08/13 11:14:55;;;;;;;2.40;1.17;;;25.40;58.10;;;;;;5064717;28;20028;-22
2022/08/13 11:17:20;;;;;;;3.20;1.33;;;25.40;57.30;;;;;;5065944;28;20775;-23
2022/08/13 11:19:48;;;;;;;3.60;1.45;;;25.40;57.40;;;;;;5064631;28;20031;-26
2022/08/13 11:22:17;;;;;;;1.27;1.17;;;25.40;57.30;;;;;;5061669;28;21677;-22
2022/08/13 11:24:42;;;;;;;1.38;1.17;;;25.40;57.20;;;;;;5063477;28;20060;-24
2022/08/13 11:27:08;;;;;;;4.38;1.35;;;25.40;57.40;;;;;;5065168;28;20067;-22
2022/08/13 11:29:33;;;;;;;1.77;1.13;;;25.40;57.20;;;;;;5065365;28;20487;-22
2022/08/13 11:31:59;;;;;;;2.03;1.08;;;25.40;57.10;;;;;;5066546;28;20062;-23
2022/08/13 11:34:25;;;;;;;3.20;1.00;;;25.40;57.30;;;;;;5050650;28;20045;-24
2022/08/13 11:36:51;;;;;;;1.10;1.00;;;25.40;57.20;;;;;;5066071;28;20036;-22
2022/08/13 11:39:17;;;;;;;1.52;1.30;;;25.40;57.20;;;;;;5066213;28;20525;-21
2022/08/13 11:41:43;;;;;;;1.20;1.10;;;25.40;57.20;;;;;;5059295;28;20020;-22
2022/08/13 11:44:08;;;;;;;3.75;0.90;;;25.40;57.20;;;;;;5064644;28;20020;-22
2022/08/13 11:46:34;;;;;;;1.65;1.20;;;25.40;57.10;;;;;;5065309;28;20021;-22
2022/08/13 11:48:59;;;;;;;3.47;1.25;;;25.40;57.20;;;;;;5050111;28;20032;-24
2022/08/13 11:51:25;;;;;;;0.82;0.75;;;25.40;57.00;;;;;;5064967;28;20078;-25
2022/08/13 11:53:51;;;;;;;1.85;1.00;;;25.40;57.00;;;;;;5067626;28;20048;-22
2022/08/13 11:56:16;;;;;;;1.70;1.30;;;25.40;57.10;;;;;;5065339;28;20028;-23
2022/08/13 11:58:42;;;;;;;2.60;1.33;;;25.40;57.00;;;;;;5067394;28;20021;-22
2022/08/13 12:01:07;;;;;;;3.08;0.98;;;25.40;57.00;;;;;;5051965;28;20046;-22
2022/08/13 12:03:38;;;;;;;1.27;0.85;;;25.40;57.00;;;;;;5065788;28;20167;-23
2022/08/13 12:06:04;;;;;;;1.25;1.05;;;25.50;57.00;;;;;;5067304;28;20017;-24
2022/08/13 12:08:30;;;;;;;1.95;1.00;;;25.50;57.00;;;;;;5065731;28;20036;-21
2022/08/13 12:10:55;;;;;;;1.55;1.15;;;25.50;57.00;;;;;;5068000;28;20016;-24
2022/08/13 12:13:21;;;;;;;2.33;0.90;;;25.50;57.00;;;;;;5064581;28;20025;-22
2022/08/13 12:15:46;;;;;;;2.22;0.90;;;25.50;57.00;;;;;;5067666;28;20478;-25
2022/08/13 12:18:12;;;;;;;0.90;0.88;;;25.50;56.80;;;;;;5065780;28;20024;-22
2022/08/13 12:20:38;;;;;;;2.58;1.40;;;25.50;56.90;;;;;;5065790;28;20040;-23
2022/08/13 12:23:04;;;;;;;0.98;0.82;;;25.50;57.00;;;;;;5066565;28;20020;-22
2022/08/13 12:25:30;;;;;;;1.40;1.00;;;25.50;56.90;;;;;;5064580;28;20040;-22
2022/08/13 12:28:15;;;;;;;1.50;0.80;;;25.50;56.90;;;;;;5045472;28;20103;-26
2022/08/13 12:30:41;;;;;;;5.18;1.13;;;25.50;56.80;;;;;;5064572;28;20033;-27
2022/08/13 12:33:07;;;;;;;1.08;0.98;;;25.50;56.90;;;;;;5065232;28;20023;-27
2022/08/13 12:35:33;;;;;;;0.70;0.70;;;25.50;57.50;;;;;;5066745;28;20017;-26
2022/08/13 12:37:59;;;;;;;0.80;0.80;;;25.50;56.70;;;;;;5064145;28;20098;-26
2022/08/13 12:40:26;;;;;;;0.60;0.60;;;25.50;56.80;;;;;;5064005;28;20052;-27
2022/08/13 12:42:51;;;;;;;0.80;0.70;;;25.50;56.80;;;;;;5065651;28;20074;-26
2022/08/13 12:45:17;;;;;;;1.48;0.82;;;25.50;56.80;;;;;;5062156;28;20074;-28
2022/08/13 12:47:46;;;;;;;0.90;0.90;;;25.60;56.70;;;;;;5065962;28;20515;-30
2022/08/13 12:50:11;;;;;;;0.77;0.65;;;25.60;56.80;;;;;;5065512;28;20187;-26
2022/08/13 12:52:37;;;;;;;0.65;0.65;;;25.60;56.70;;;;;;5065332;28;20153;-25
2022/08/13 12:55:04;;;;;;;0.70;0.70;;;25.60;56.80;;;;;;5065102;28;20024;-25
2022/08/13 12:57:30;;;;;;;1.33;0.73;;;25.60;56.60;;;;;;5063407;28;20098;-26
2022/08/13 12:59:56;;;;;;;0.77;0.77;;;25.60;56.80;;;;;;5065594;28;20559;-25
2022/08/13 13:02:22;;;;;;;0.70;0.70;;;25.60;57.40;;;;;;5064779;28;20050;-26
2022/08/13 13:04:48;;;;;;;1.05;0.98;;;25.60;56.60;;;;;;5062825;28;20074;-25